createdAt,value
2022-08-26T00:01:58.935Z,56.92
2022-08-26T00:04:52.474Z,57.98
2022-08-26T00:07:44.567Z,59.22
2022-08-26T00:10:38.780Z,63.38
2022-08-26T00:13:30.954Z,65.32
2022-08-26T00:16:23.646Z,63.46
2022-08-26T00:19:15.966Z,61.40
2022-08-26T00:22:08.316Z,58.26
2022-08-26T00:25:00.444Z,57.42
2022-08-26T00:27:53.337Z,58.55
2022-08-26T00:30:48.209Z,59.86
2022-08-26T00:33:44.049Z,64.55
2022-08-26T00:36:36.618Z,65.14
2022-08-26T00:39:28.641Z,63.36
2022-08-26T00:42:21.083Z,62.25
2022-08-26T00:45:14.813Z,60.77
2022-08-26T00:48:09.015Z,57.79
2022-08-26T00:51:05.522Z,56.87
2022-08-26T00:54:03.629Z,58.08
2022-08-26T00:56:59.951Z,59.53
2022-08-26T00:59:58.268Z,63.86
2022-08-26T01:02:52.214Z,65.72
2022-08-26T01:05:45.094Z,64.10
2022-08-26T01:08:38.508Z,61.98
2022-08-26T01:11:31.658Z,61.03
2022-08-26T01:14:25.741Z,58.22
2022-08-26T01:17:17.856Z,57.32
2022-08-26T01:19:52.298Z,58.61
2022-08-26T01:22:56.170Z,59.59
2022-08-26T01:25:51.842Z,64.57
2022-08-26T01:28:44.678Z,65.39
2022-08-26T01:31:37.889Z,63.46
2022-08-26T01:34:35.122Z,62.38
2022-08-26T01:37:33.525Z,61.56
2022-08-26T01:40:29.223Z,60.86
2022-08-26T01:43:29.040Z,58.06
2022-08-26T01:46:22.899Z,57.23
2022-08-26T01:49:17.412Z,58.45
2022-08-26T01:52:11.508Z,59.85
2022-08-26T01:55:06.029Z,64.91
2022-08-26T01:57:53.325Z,65.78
2022-08-26T02:00:49.203Z,63.61
2022-08-26T02:03:57.214Z,61.88
2022-08-26T02:06:40.418Z,60.96
2022-08-26T02:09:32.646Z,58.25
2022-08-26T02:12:33.726Z,57.39
2022-08-26T02:15:26.122Z,58.67
2022-08-26T02:18:18.690Z,60.18
2022-08-26T02:21:13.239Z,65.34
2022-08-26T02:24:16.483Z,66.08
2022-08-26T02:27:09.931Z,63.95
2022-08-26T02:30:08.594Z,62.85
2022-08-26T02:33:03.802Z,61.96
2022-08-26T02:35:57.040Z,61.57
2022-08-26T02:38:49.157Z,61.61
2022-08-26T02:41:45.294Z,60.84
2022-08-26T02:44:40.005Z,60.56
2022-08-26T02:47:33.512Z,60.33
2022-08-26T02:50:26.289Z,60.01
2022-08-26T02:53:25.008Z,59.86
2022-08-26T02:56:17.662Z,59.75
2022-08-26T02:59:12.449Z,57.44
2022-08-26T03:02:04.679Z,57.47
2022-08-26T03:04:57.875Z,58.87
2022-08-26T03:07:54.290Z,63.79
2022-08-26T03:10:46.580Z,64.20
2022-08-26T03:13:40.758Z,62.63
2022-08-26T03:16:34.076Z,61.65
2022-08-26T03:19:27.280Z,60.95
2022-08-26T03:22:19.335Z,60.11
2022-08-26T03:25:15.981Z,57.69
2022-08-26T03:28:09.658Z,57.05
2022-08-26T03:31:01.979Z,58.21
2022-08-26T03:33:57.638Z,59.58
2022-08-26T03:36:52.802Z,64.65
2022-08-26T03:39:44.776Z,65.28
2022-08-26T03:42:37.856Z,63.50
2022-08-26T03:45:30.473Z,61.95
2022-08-26T03:48:22.577Z,60.87
2022-08-26T03:51:18.388Z,60.01
2022-08-26T03:54:11.009Z,57.79
2022-08-26T03:57:03.488Z,57.41
2022-08-26T03:59:55.539Z,58.71
2022-08-26T04:02:41.263Z,59.93
2022-08-26T04:05:33.431Z,64.40
2022-08-26T04:08:25.947Z,64.91
2022-08-26T04:11:22.957Z,63.27
2022-08-26T04:14:20.064Z,61.70
2022-08-26T04:17:12.344Z,60.68
2022-08-26T04:20:05.073Z,57.84
2022-08-26T04:22:58.688Z,56.84
2022-08-26T04:25:51.635Z,57.67
2022-08-26T04:28:26.681Z,58.82
2022-08-26T04:31:14.662Z,59.77
2022-08-26T04:34:01.597Z,64.33
2022-08-26T04:36:44.231Z,64.64
2022-08-26T04:39:27.648Z,62.12
2022-08-26T04:42:25.970Z,60.61
2022-08-26T04:45:14.186Z,57.73
2022-08-26T04:48:06.918Z,57.05
2022-08-26T04:51:04.475Z,58.35
2022-08-26T04:53:58.729Z,59.52
2022-08-26T04:56:46.508Z,64.04
2022-08-26T04:59:39.560Z,65.24
2022-08-26T05:02:31.703Z,62.89
2022-08-26T05:05:24.862Z,60.25
2022-08-26T05:08:18.435Z,56.15
2022-08-26T05:11:07.560Z,55.72
2022-08-26T05:14:02.223Z,56.52
2022-08-26T05:16:54.803Z,56.89
2022-08-26T05:19:47.229Z,59.02
2022-08-26T05:22:39.514Z,59.59
2022-08-26T05:25:31.728Z,59.78
2022-08-26T05:28:24.420Z,63.90
2022-08-26T05:31:19.711Z,64.69
2022-08-26T05:34:12.058Z,62.33
2022-08-26T05:37:04.757Z,58.22
2022-08-26T05:39:57.353Z,56.05
2022-08-26T05:42:50.460Z,56.74
2022-08-26T05:45:46.519Z,57.76
2022-08-26T05:48:39.822Z,57.66
2022-08-26T05:51:37.672Z,58.56
2022-08-26T05:54:22.255Z,58.97
2022-08-26T05:57:03.359Z,59.48
2022-08-26T05:59:55.613Z,59.75
2022-08-26T06:02:38.801Z,59.73
2022-08-26T06:05:33.288Z,60.00
2022-08-26T06:08:27.546Z,59.65
2022-08-26T06:11:25.458Z,59.97
2022-08-26T06:14:18.354Z,59.43
2022-08-26T06:17:10.522Z,59.59
2022-08-26T06:20:02.750Z,59.67
2022-08-26T06:23:12.279Z,59.90
2022-08-26T06:26:05.607Z,59.17
2022-08-26T06:28:57.702Z,59.15
2022-08-26T06:31:50.131Z,59.23
2022-08-26T06:34:43.874Z,58.71
2022-08-26T06:37:35.813Z,58.21
2022-08-26T06:40:22.769Z,57.61
2022-08-26T06:43:15.342Z,58.21
2022-08-26T06:46:14.465Z,57.93
2022-08-26T06:49:07.195Z,57.17
2022-08-26T06:51:52.776Z,56.90
2022-08-26T06:54:45.008Z,57.10
2022-08-26T06:57:32.879Z,56.41
2022-08-26T07:00:11.953Z,56.09
2022-08-26T07:03:04.807Z,55.62
2022-08-26T07:06:01.872Z,54.68
2022-08-26T07:09:06.500Z,55.54
2022-08-26T07:12:02.446Z,55.07
2022-08-26T07:14:55.350Z,54.92
2022-08-26T07:17:49.717Z,54.01
2022-08-26T07:20:42.995Z,53.83
2022-08-26T07:23:36.115Z,53.59
2022-08-26T07:26:25.121Z,53.54
2022-08-26T07:29:17.430Z,53.05
2022-08-26T07:32:10.858Z,53.17
2022-08-26T07:35:03.161Z,53.03
2022-08-26T07:37:57.042Z,53.38
2022-08-26T07:40:49.227Z,52.20
2022-08-26T07:43:42.252Z,51.99
2022-08-26T07:46:35.035Z,50.94
2022-08-26T07:49:28.173Z,51.03
2022-08-26T07:52:13.918Z,50.75
2022-08-26T07:54:51.111Z,50.28
2022-08-26T07:57:43.210Z,49.90
2022-08-26T08:00:36.054Z,50.72
2022-08-26T08:03:28.079Z,49.77
2022-08-26T08:06:23.224Z,48.70
2022-08-26T08:09:18.193Z,48.64
2022-08-26T08:12:04.160Z,48.22
2022-08-26T08:14:51.460Z,48.14
2022-08-26T08:17:36.296Z,47.77
2022-08-26T08:20:19.700Z,46.31
2022-08-26T08:23:11.686Z,45.50
2022-08-26T08:26:01.433Z,46.44
2022-08-26T08:28:47.899Z,46.03
2022-08-26T08:31:52.084Z,46.34
2022-08-26T08:34:37.910Z,46.99
2022-08-26T08:37:30.016Z,45.27
2022-08-26T08:40:18.476Z,44.66
2022-08-26T08:43:14.720Z,43.85
2022-08-26T08:46:11.389Z,43.77
2022-08-26T08:49:04.307Z,44.29
2022-08-26T08:51:43.973Z,43.28
2022-08-26T08:54:26.458Z,42.73
2022-08-26T08:57:27.443Z,44.45
2022-08-26T09:00:18.141Z,42.55
2022-08-26T09:03:16.922Z,39.25
2022-08-26T09:05:51.579Z,40.38
2022-08-26T09:08:45.111Z,38.23
2022-08-26T09:11:30.600Z,38.23
2022-08-26T09:14:23.032Z,38.76
2022-08-26T09:17:24.380Z,38.84
2022-08-26T09:20:14.090Z,37.96
2022-08-26T09:23:00.363Z,38.57
2022-08-26T09:28:33.422Z,37.81
2022-08-26T09:31:15.098Z,37.77
2022-08-26T09:33:47.161Z,37.27
2022-08-26T09:36:41.345Z,37.51
2022-08-26T09:39:33.177Z,37.60
2022-08-26T09:42:14.246Z,37.35
2022-08-26T09:45:03.720Z,37.34
2022-08-26T09:47:39.183Z,36.35
2022-08-26T09:50:31.100Z,37.15
2022-08-26T09:53:28.782Z,36.79
2022-08-26T09:56:32.209Z,34.58
2022-08-26T09:59:32.917Z,34.29
2022-08-26T10:02:24.684Z,33.17
2022-08-26T10:05:29.392Z,33.48
2022-08-26T10:08:27.118Z,32.70
2022-08-26T10:11:23.311Z,33.35
2022-08-26T10:14:03.369Z,31.95
2022-08-26T10:16:48.145Z,31.83
2022-08-26T10:19:56.275Z,31.81
2022-08-26T10:22:59.402Z,32.08
2022-08-26T10:25:59.006Z,31.46
2022-08-26T10:29:07.680Z,31.13
2022-08-26T10:32:05.797Z,31.69
2022-08-26T10:34:58.227Z,31.43
2022-08-26T10:37:54.235Z,31.60
2022-08-26T10:40:56.316Z,31.82
2022-08-26T10:43:43.938Z,31.57
2022-08-26T10:46:43.832Z,30.27
2022-08-26T10:49:37.095Z,30.02
2022-08-26T10:52:42.872Z,30.27
2022-08-26T10:55:41.951Z,30.60
2022-08-26T10:58:55.530Z,30.34
2022-08-26T11:01:53.851Z,30.50
2022-08-26T11:04:52.349Z,30.26
2022-08-26T11:07:46.314Z,30.72
2022-08-26T11:11:08.427Z,30.53
2022-08-26T11:14:05.095Z,30.46
2022-08-26T11:16:58.814Z,30.72
2022-08-26T11:20:09.198Z,30.07
2022-08-26T11:23:36.341Z,30.54
2022-08-26T11:26:55.693Z,30.46
2022-08-26T11:30:05.203Z,29.81
2022-08-26T11:32:52.221Z,28.22
2022-08-26T11:35:48.352Z,28.21
2022-08-26T11:38:33.589Z,29.42
2022-08-26T11:41:18.385Z,29.44
2022-08-26T11:44:07.209Z,29.64
2022-08-26T11:47:03.189Z,29.01
2022-08-26T11:50:09.609Z,27.79
2022-08-26T11:52:53.599Z,28.46
2022-08-26T11:55:45.772Z,28.26
2022-08-26T11:58:28.531Z,28.81
2022-08-26T12:01:22.526Z,28.84
2022-08-26T12:04:07.670Z,28.68
2022-08-26T12:07:01.490Z,29.06
2022-08-26T12:09:51.786Z,28.49
2022-08-26T12:12:34.702Z,27.82
2022-08-26T12:15:22.250Z,26.74
2022-08-26T12:18:29.005Z,26.95
2022-08-26T12:21:25.740Z,26.84
2022-08-26T12:24:21.324Z,27.46
2022-08-26T12:27:23.196Z,28.01
2022-08-26T12:30:12.407Z,28.36
2022-08-26T12:33:22.014Z,27.58
2022-08-26T12:36:19.278Z,28.07
2022-08-26T12:39:15.698Z,27.97
2022-08-26T12:42:22.610Z,27.58
2022-08-26T12:45:00.119Z,27.74
2022-08-26T12:47:58.058Z,28.14
2022-08-26T12:50:52.283Z,27.47
2022-08-26T12:53:45.787Z,27.34
2022-08-26T12:56:39.966Z,27.93
2022-08-26T12:59:32.027Z,27.35
2022-08-26T13:02:33.906Z,27.68
2022-08-26T13:05:23.297Z,27.89
2022-08-26T13:08:17.826Z,27.47
2022-08-26T13:11:15.637Z,27.17
2022-08-26T13:14:01.804Z,27.84
2022-08-26T13:16:54.375Z,28.10
2022-08-26T13:19:46.433Z,27.35
2022-08-26T13:22:30.663Z,27.37
2022-08-26T13:25:22.644Z,27.57
2022-08-26T13:28:05.391Z,27.49
2022-08-26T13:30:50.718Z,27.19
2022-08-26T13:33:37.673Z,26.56
2022-08-26T13:36:20.998Z,26.93
2022-08-26T13:39:13.553Z,26.71
2022-08-26T13:42:05.830Z,27.50
2022-08-26T13:44:44.491Z,27.41
2022-08-26T13:47:31.791Z,27.35
2022-08-26T13:50:23.959Z,27.59
2022-08-26T13:53:17.214Z,27.52
2022-08-26T13:55:49.358Z,27.31
2022-08-26T13:58:41.616Z,27.52
2022-08-26T14:01:35.373Z,27.66
2022-08-26T14:04:27.590Z,27.92
2022-08-26T14:07:19.764Z,28.09
2022-08-26T14:10:12.552Z,27.55
2022-08-26T14:13:04.603Z,27.79
2022-08-26T14:15:50.672Z,27.32
2022-08-26T14:18:48.569Z,27.50
2022-08-26T14:21:42.124Z,27.88
2022-08-26T14:24:32.992Z,27.59
2022-08-26T14:27:25.436Z,27.32
2022-08-26T14:30:18.671Z,27.65
2022-08-26T14:33:01.152Z,27.47
2022-08-26T14:35:47.986Z,27.59
2022-08-26T14:38:42.041Z,27.71
2022-08-26T14:41:36.383Z,27.29
2022-08-26T14:44:31.302Z,27.47
2022-08-26T14:47:23.426Z,27.45
2022-08-26T14:50:07.848Z,27.35
2022-08-26T14:53:17.491Z,27.27
2022-08-26T14:55:59.450Z,27.54
2022-08-26T14:58:51.505Z,27.55
2022-08-26T15:01:30.989Z,27.41
2022-08-26T15:04:24.183Z,27.25
2022-08-26T15:07:16.215Z,27.07
2022-08-26T15:10:12.030Z,27.09
2022-08-26T15:12:48.851Z,27.43
2022-08-26T15:15:30.896Z,27.59
2022-08-26T15:18:23.597Z,27.20
2022-08-26T15:21:15.810Z,27.40
2022-08-26T15:24:01.023Z,27.09
2022-08-26T15:26:45.895Z,27.16
2022-08-26T15:29:30.609Z,27.45
2022-08-26T15:32:14.434Z,27.51
2022-08-26T15:34:50.099Z,27.53
2022-08-26T15:37:32.446Z,27.76
2022-08-26T15:40:26.752Z,27.77
2022-08-26T15:43:28.790Z,27.98
2022-08-26T15:46:21.862Z,28.25
2022-08-26T15:49:18.142Z,28.27
2022-08-26T15:52:09.441Z,28.64
2022-08-26T15:55:01.600Z,28.80
2022-08-26T15:57:37.047Z,28.68
2022-08-26T16:00:29.839Z,28.51
2022-08-26T16:03:22.075Z,28.65
2022-08-26T16:06:05.282Z,28.81
2022-08-26T16:08:57.551Z,29.34
2022-08-26T16:11:47.204Z,29.44
2022-08-26T16:14:19.182Z,29.54
2022-08-26T16:17:11.677Z,29.20
2022-08-26T16:20:04.904Z,29.05
2022-08-26T16:22:57.184Z,28.72
2022-08-26T16:25:49.777Z,28.82
2022-08-26T16:28:34.511Z,28.81
2022-08-26T16:31:26.888Z,28.72
2022-08-26T16:34:18.700Z,28.67
2022-08-26T16:37:03.643Z,28.82
2022-08-26T16:39:55.708Z,29.11
2022-08-26T16:42:40.479Z,29.90
2022-08-26T16:45:32.256Z,30.31
2022-08-26T16:48:24.876Z,31.02
2022-08-26T16:51:18.888Z,31.15
2022-08-26T16:54:11.131Z,31.55
2022-08-26T16:57:03.514Z,31.73
2022-08-26T16:59:55.568Z,32.08
2022-08-26T17:02:40.601Z,32.37
2022-08-26T17:05:32.770Z,33.19
2022-08-26T17:08:28.390Z,34.68
2022-08-26T17:11:21.054Z,35.41
2022-08-26T17:14:13.724Z,35.92
2022-08-26T17:16:45.688Z,36.63
2022-08-26T17:19:34.528Z,37.96
2022-08-26T17:22:25.797Z,38.57
2022-08-26T17:25:16.021Z,39.01
2022-08-26T17:28:13.537Z,39.80
2022-08-26T17:31:06.177Z,40.41
2022-08-26T17:33:58.398Z,41.91
2022-08-26T17:36:50.699Z,43.54
2022-08-26T17:39:44.104Z,44.07
2022-08-26T17:42:31.334Z,43.51
2022-08-26T17:45:24.020Z,44.47
2022-08-26T17:48:14.716Z,45.19
2022-08-26T17:51:12.552Z,45.99
2022-08-26T17:54:04.754Z,46.37
2022-08-26T17:56:57.256Z,46.70
2022-08-26T17:59:49.283Z,47.71
2022-08-26T18:02:40.831Z,48.70
2022-08-26T18:05:32.857Z,49.55
2022-08-26T18:08:14.766Z,50.65
2022-08-26T18:11:11.202Z,51.85
2022-08-26T18:13:47.595Z,52.74
2022-08-26T18:16:31.971Z,53.14
2022-08-26T18:19:24.021Z,52.84
2022-08-26T18:22:16.020Z,53.15
2022-08-26T18:25:09.829Z,53.08
2022-08-26T18:28:01.875Z,53.76
2022-08-26T18:30:54.003Z,54.73
2022-08-26T18:33:50.126Z,55.21
2022-08-26T18:36:43.196Z,55.42
2022-08-26T18:39:35.256Z,55.53
2022-08-26T18:42:27.490Z,55.95
2022-08-26T18:45:19.782Z,56.18
2022-08-26T18:48:12.126Z,56.12
2022-08-26T18:51:05.243Z,56.36
2022-08-26T18:53:58.312Z,56.66
2022-08-26T18:56:33.637Z,57.64
2022-08-26T18:59:27.953Z,58.10
2022-08-26T19:02:15.342Z,59.74
2022-08-26T19:05:08.673Z,60.07
2022-08-26T19:08:00.845Z,60.25
2022-08-26T19:10:53.128Z,64.30
2022-08-26T19:13:46.052Z,65.68
2022-08-26T19:16:39.072Z,63.68
2022-08-26T19:19:31.857Z,61.11
2022-08-26T19:22:24.752Z,56.21
2022-08-26T19:25:17.527Z,54.03
2022-08-26T19:27:52.464Z,54.45
2022-08-26T19:30:47.567Z,55.14
2022-08-26T19:33:35.057Z,57.57
2022-08-26T19:36:28.488Z,57.22
2022-08-26T19:39:20.785Z,57.70
2022-08-26T19:42:12.837Z,58.28
2022-08-26T19:45:24.569Z,58.72
2022-08-26T19:48:11.429Z,59.50
2022-08-26T19:51:02.387Z,60.41
2022-08-26T19:53:44.733Z,64.79
2022-08-26T19:56:30.229Z,66.48
2022-08-26T19:59:14.634Z,63.80
2022-08-26T20:02:01.376Z,61.06
2022-08-26T20:04:41.989Z,57.26
2022-08-26T20:07:34.069Z,56.10
2022-08-26T20:10:27.020Z,56.50
2022-08-26T20:13:19.608Z,57.16
2022-08-26T20:16:12.331Z,58.16
2022-08-26T20:19:21.548Z,59.46
2022-08-26T20:22:16.001Z,64.25
2022-08-26T20:25:09.030Z,65.51
2022-08-26T20:27:54.362Z,62.88
2022-08-26T20:30:46.443Z,61.11
2022-08-26T20:33:39.850Z,57.91
2022-08-26T20:36:41.755Z,56.42
2022-08-26T20:39:33.886Z,57.52
2022-08-26T20:42:26.429Z,58.48
2022-08-26T20:45:11.270Z,59.98
2022-08-26T20:48:03.561Z,63.73
2022-08-26T20:50:59.428Z,64.93
2022-08-26T20:53:45.204Z,63.00
2022-08-26T20:56:38.037Z,61.76
2022-08-26T20:59:30.175Z,58.47
2022-08-26T21:02:23.502Z,56.91
2022-08-26T21:05:15.722Z,57.75
2022-08-26T21:08:07.902Z,58.96
2022-08-26T21:10:51.296Z,60.28
2022-08-26T21:13:48.585Z,64.79
2022-08-26T21:16:34.470Z,66.26
2022-08-26T21:19:21.163Z,64.18
2022-08-26T21:22:13.220Z,62.75
2022-08-26T21:24:59.016Z,61.80
2022-08-26T21:27:51.189Z,61.14
2022-08-26T21:30:43.463Z,60.50
2022-08-26T21:33:35.749Z,58.46
2022-08-26T21:36:21.157Z,57.71
2022-08-26T21:39:13.947Z,57.97
2022-08-26T21:42:06.341Z,59.23
2022-08-26T21:44:58.401Z,63.25
2022-08-26T21:47:49.357Z,64.19
2022-08-26T21:50:41.586Z,63.24
2022-08-26T21:53:33.839Z,62.44
2022-08-26T21:56:28.084Z,61.68
2022-08-26T21:59:21.292Z,58.50
2022-08-26T22:02:13.653Z,57.22
2022-08-26T22:05:07.336Z,58.65
2022-08-26T22:07:59.478Z,59.77
2022-08-26T22:10:53.805Z,63.64
2022-08-26T22:13:30.033Z,65.86
2022-08-26T22:16:22.470Z,64.72
2022-08-26T22:19:17.253Z,62.80
2022-08-26T22:21:50.970Z,61.27
2022-08-26T22:24:32.594Z,60.34
2022-08-26T22:27:25.671Z,56.77
2022-08-26T22:30:19.959Z,56.01
2022-08-26T22:33:06.406Z,57.03
2022-08-26T22:35:41.073Z,58.61
2022-08-26T22:38:33.531Z,59.30
2022-08-26T22:41:25.868Z,64.37
2022-08-26T22:44:18.970Z,65.31
2022-08-26T22:47:11.038Z,63.59
2022-08-26T22:49:59.317Z,62.25
2022-08-26T22:52:51.470Z,61.15
2022-08-26T22:55:37.234Z,60.18
2022-08-26T22:58:30.953Z,57.12
2022-08-26T23:01:15.659Z,56.53
2022-08-26T23:03:58.742Z,57.97
2022-08-26T23:06:50.857Z,58.92
2022-08-26T23:09:43.074Z,63.36
2022-08-26T23:12:37.172Z,64.13
2022-08-26T23:15:29.402Z,62.89
2022-08-26T23:18:22.697Z,62.39
2022-08-26T23:21:15.338Z,61.99
2022-08-26T23:24:09.122Z,61.31
2022-08-26T23:27:02.199Z,60.63
2022-08-26T23:29:54.259Z,59.93
2022-08-26T23:32:46.361Z,58.11
2022-08-26T23:35:38.520Z,57.65
2022-08-26T23:38:26.217Z,58.75
2022-08-26T23:41:18.364Z,59.89
2022-08-26T23:44:10.514Z,64.53
2022-08-26T23:47:03.429Z,65.35
2022-08-26T23:49:54.086Z,63.34
2022-08-26T23:52:56.417Z,61.80
2022-08-26T23:55:49.807Z,61.03
2022-08-26T23:58:42.973Z,60.22
